sensor_id;sensor_type;location;lat;lon;timestamp;P1;durP1;ratioP1;P2;durP2;ratioP2
32633;SDS011;19043;51.012;5.648;2023-04-24T00:01:25;12.13;;;5.32;;
32633;SDS011;19043;51.012;5.648;2023-04-24T00:03:51;8.48;;;4.97;;
32633;SDS011;19043;51.012;5.648;2023-04-24T00:06:17;8.82;;;5.18;;
32633;SDS011;19043;51.012;5.648;2023-04-24T00:08:42;9.60;;;6.05;;
32633;SDS011;19043;51.012;5.648;2023-04-24T00:11:07;8.02;;;5.57;;
32633;SDS011;19043;51.012;5.648;2023-04-24T00:13:34;13.98;;;6.18;;
32633;SDS011;19043;51.012;5.648;2023-04-24T00:15:59;12.93;;;5.90;;
32633;SDS011;19043;51.012;5.648;2023-04-24T00:18:24;10.50;;;6.63;;
32633;SDS011;19043;51.012;5.648;2023-04-24T00:20:50;11.13;;;6.50;;
32633;SDS011;19043;51.012;5.648;2023-04-24T00:23:15;12.60;;;7.30;;
32633;SDS011;19043;51.012;5.648;2023-04-24T00:25:40;8.82;;;6.35;;
32633;SDS011;19043;51.012;5.648;2023-04-24T00:28:05;13.82;;;7.90;;
32633;SDS011;19043;51.012;5.648;2023-04-24T00:30:31;10.73;;;7.40;;
32633;SDS011;19043;51.012;5.648;2023-04-24T00:32:56;16.20;;;9.38;;
32633;SDS011;19043;51.012;5.648;2023-04-24T00:35:22;12.18;;;8.77;;
32633;SDS011;19043;51.012;5.648;2023-04-24T00:37:48;16.80;;;8.77;;
32633;SDS011;19043;51.012;5.648;2023-04-24T00:40:13;13.77;;;8.98;;
32633;SDS011;19043;51.012;5.648;2023-04-24T00:42:39;17.25;;;9.32;;
32633;SDS011;19043;51.012;5.648;2023-04-24T00:45:05;15.60;;;9.82;;
32633;SDS011;19043;51.012;5.648;2023-04-24T00:47:31;15.07;;;9.77;;
32633;SDS011;19043;51.012;5.648;2023-04-24T00:49:57;14.63;;;9.23;;
32633;SDS011;19043;51.012;5.648;2023-04-24T00:52:22;20.38;;;10.15;;
32633;SDS011;19043;51.012;5.648;2023-04-24T00:54:49;16.17;;;10.27;;
32633;SDS011;19043;51.012;5.648;2023-04-24T00:57:14;14.73;;;9.77;;
32633;SDS011;19043;51.012;5.648;2023-04-24T00:59:42;15.80;;;10.50;;
32633;SDS011;19043;51.012;5.648;2023-04-24T01:02:08;17.67;;;10.93;;
32633;SDS011;19043;51.012;5.648;2023-04-24T01:04:34;16.33;;;10.70;;
32633;SDS011;19043;51.012;5.648;2023-04-24T01:07:00;14.75;;;10.70;;
32633;SDS011;19043;51.012;5.648;2023-04-24T01:09:25;14.50;;;11.27;;
32633;SDS011;19043;51.012;5.648;2023-04-24T01:11:51;17.95;;;11.57;;
32633;SDS011;19043;51.012;5.648;2023-04-24T01:14:16;19.58;;;10.55;;
32633;SDS011;19043;51.012;5.648;2023-04-24T01:16:41;18.20;;;11.55;;
32633;SDS011;19043;51.012;5.648;2023-04-24T01:19:07;14.88;;;11.02;;
32633;SDS011;19043;51.012;5.648;2023-04-24T01:21:34;17.55;;;11.60;;
32633;SDS011;19043;51.012;5.648;2023-04-24T01:24:01;22.02;;;11.50;;
32633;SDS011;19043;51.012;5.648;2023-04-24T01:26:27;21.90;;;12.23;;
32633;SDS011;19043;51.012;5.648;2023-04-24T01:28:52;20.00;;;12.30;;
32633;SDS011;19043;51.012;5.648;2023-04-24T01:31:17;19.13;;;12.07;;
32633;SDS011;19043;51.012;5.648;2023-04-24T01:33:43;22.02;;;13.25;;
32633;SDS011;19043;51.012;5.648;2023-04-24T01:36:09;24.23;;;12.85;;
32633;SDS011;19043;51.012;5.648;2023-04-24T01:38:35;16.13;;;11.43;;
32633;SDS011;19043;51.012;5.648;2023-04-24T01:41:00;17.65;;;11.55;;
32633;SDS011;19043;51.012;5.648;2023-04-24T01:43:26;21.80;;;12.68;;
32633;SDS011;19043;51.012;5.648;2023-04-24T01:45:51;18.55;;;12.18;;
32633;SDS011;19043;51.012;5.648;2023-04-24T01:48:16;18.17;;;11.18;;
32633;SDS011;19043;51.012;5.648;2023-04-24T01:50:42;18.92;;;11.93;;
32633;SDS011;19043;51.012;5.648;2023-04-24T01:53:07;16.55;;;11.70;;
32633;SDS011;19043;51.012;5.648;2023-04-24T01:55:32;19.13;;;11.75;;
32633;SDS011;19043;51.012;5.648;2023-04-24T01:57:58;18.95;;;12.30;;
32633;SDS011;19043;51.012;5.648;2023-04-24T02:00:24;17.35;;;10.70;;
32633;SDS011;19043;51.012;5.648;2023-04-24T02:02:50;24.58;;;12.50;;
32633;SDS011;19043;51.012;5.648;2023-04-24T02:05:15;13.82;;;11.48;;
32633;SDS011;19043;51.012;5.648;2023-04-24T02:07:40;19.27;;;11.40;;
32633;SDS011;19043;51.012;5.648;2023-04-24T02:10:06;16.85;;;11.93;;
32633;SDS011;19043;51.012;5.648;2023-04-24T02:12:31;13.63;;;10.43;;
32633;SDS011;19043;51.012;5.648;2023-04-24T02:14:56;16.85;;;11.48;;
32633;SDS011;19043;51.012;5.648;2023-04-24T02:17:22;17.40;;;11.32;;
32633;SDS011;19043;51.012;5.648;2023-04-24T02:19:47;17.08;;;10.90;;
32633;SDS011;19043;51.012;5.648;2023-04-24T02:22:13;22.08;;;11.18;;
32633;SDS011;19043;51.012;5.648;2023-04-24T02:24:38;16.15;;;10.60;;
32633;SDS011;19043;51.012;5.648;2023-04-24T02:27:03;15.20;;;10.32;;
32633;SDS011;19043;51.012;5.648;2023-04-24T02:29:29;17.08;;;11.25;;
32633;SDS011;19043;51.012;5.648;2023-04-24T02:31:54;20.52;;;11.35;;
32633;SDS011;19043;51.012;5.648;2023-04-24T02:34:19;19.30;;;11.50;;
32633;SDS011;19043;51.012;5.648;2023-04-24T02:36:45;15.45;;;11.30;;
32633;SDS011;19043;51.012;5.648;2023-04-24T02:39:10;20.20;;;12.15;;
32633;SDS011;19043;51.012;5.648;2023-04-24T02:41:35;17.92;;;11.55;;
32633;SDS011;19043;51.012;5.648;2023-04-24T02:44:00;17.35;;;11.18;;
32633;SDS011;19043;51.012;5.648;2023-04-24T02:46:26;17.17;;;11.20;;
32633;SDS011;19043;51.012;5.648;2023-04-24T02:48:51;21.73;;;11.25;;
32633;SDS011;19043;51.012;5.648;2023-04-24T02:51:16;20.35;;;13.30;;
32633;SDS011;19043;51.012;5.648;2023-04-24T02:53:42;17.38;;;11.80;;
32633;SDS011;19043;51.012;5.648;2023-04-24T02:56:07;21.42;;;11.32;;
32633;SDS011;19043;51.012;5.648;2023-04-24T02:58:32;21.95;;;11.52;;
32633;SDS011;19043;51.012;5.648;2023-04-24T03:00:57;15.65;;;11.10;;
32633;SDS011;19043;51.012;5.648;2023-04-24T03:03:23;14.13;;;10.70;;
32633;SDS011;19043;51.012;5.648;2023-04-24T03:05:48;23.00;;;11.27;;
32633;SDS011;19043;51.012;5.648;2023-04-24T03:08:14;14.07;;;10.02;;
32633;SDS011;19043;51.012;5.648;2023-04-24T03:10:41;13.90;;;10.23;;
32633;SDS011;19043;51.012;5.648;2023-04-24T03:13:07;17.92;;;10.35;;
32633;SDS011;19043;51.012;5.648;2023-04-24T03:15:32;14.70;;;11.20;;
32633;SDS011;19043;51.012;5.648;2023-04-24T03:17:57;19.15;;;11.35;;
32633;SDS011;19043;51.012;5.648;2023-04-24T03:20:22;14.75;;;11.13;;
32633;SDS011;19043;51.012;5.648;2023-04-24T03:22:48;16.30;;;11.32;;
32633;SDS011;19043;51.012;5.648;2023-04-24T03:25:13;14.15;;;10.90;;
32633;SDS011;19043;51.012;5.648;2023-04-24T03:27:38;21.20;;;11.27;;
32633;SDS011;19043;51.012;5.648;2023-04-24T03:30:05;16.90;;;10.52;;
32633;SDS011;19043;51.012;5.648;2023-04-24T03:32:30;13.73;;;10.77;;
32633;SDS011;19043;51.012;5.648;2023-04-24T03:34:57;17.98;;;11.45;;
32633;SDS011;19043;51.012;5.648;2023-04-24T03:37:22;19.23;;;10.80;;
32633;SDS011;19043;51.012;5.648;2023-04-24T03:39:47;19.90;;;11.10;;
32633;SDS011;19043;51.012;5.648;2023-04-24T03:42:13;16.15;;;11.38;;
32633;SDS011;19043;51.012;5.648;2023-04-24T03:44:38;16.73;;;12.38;;
32633;SDS011;19043;51.012;5.648;2023-04-24T03:47:03;17.30;;;11.77;;
32633;SDS011;19043;51.012;5.648;2023-04-24T03:49:28;17.95;;;12.80;;
32633;SDS011;19043;51.012;5.648;2023-04-24T03:51:54;18.17;;;13.13;;
32633;SDS011;19043;51.012;5.648;2023-04-24T03:54:19;19.98;;;12.93;;
32633;SDS011;19043;51.012;5.648;2023-04-24T03:56:45;18.98;;;13.20;;
32633;SDS011;19043;51.012;5.648;2023-04-24T03:59:10;20.42;;;13.32;;
32633;SDS011;19043;51.012;5.648;2023-04-24T04:01:35;22.08;;;12.82;;
32633;SDS011;19043;51.012;5.648;2023-04-24T04:04:04;20.13;;;13.15;;
32633;SDS011;19043;51.012;5.648;2023-04-24T04:06:30;26.50;;;15.00;;
32633;SDS011;19043;51.012;5.648;2023-04-24T04:08:58;21.52;;;13.95;;
32633;SDS011;19043;51.012;5.648;2023-04-24T04:11:24;19.73;;;13.48;;
32633;SDS011;19043;51.012;5.648;2023-04-24T04:13:49;23.63;;;14.23;;
32633;SDS011;19043;51.012;5.648;2023-04-24T04:16:15;20.85;;;14.13;;
32633;SDS011;19043;51.012;5.648;2023-04-24T04:18:43;20.02;;;13.65;;
32633;SDS011;19043;51.012;5.648;2023-04-24T04:21:08;17.05;;;13.35;;
32633;SDS011;19043;51.012;5.648;2023-04-24T04:23:33;18.77;;;13.18;;
32633;SDS011;19043;51.012;5.648;2023-04-24T04:25:59;22.02;;;14.50;;
32633;SDS011;19043;51.012;5.648;2023-04-24T04:28:24;19.52;;;14.27;;
32633;SDS011;19043;51.012;5.648;2023-04-24T04:30:50;23.88;;;13.65;;
32633;SDS011;19043;51.012;5.648;2023-04-24T04:33:19;18.92;;;13.23;;
32633;SDS011;19043;51.012;5.648;2023-04-24T04:35:44;23.80;;;13.95;;
32633;SDS011;19043;51.012;5.648;2023-04-24T04:38:09;15.88;;;12.18;;
32633;SDS011;19043;51.012;5.648;2023-04-24T04:40:35;17.67;;;11.40;;
32633;SDS011;19043;51.012;5.648;2023-04-24T04:43:01;14.55;;;11.90;;
32633;SDS011;19043;51.012;5.648;2023-04-24T04:45:27;19.75;;;12.68;;
32633;SDS011;19043;51.012;5.648;2023-04-24T04:47:53;20.50;;;12.40;;
32633;SDS011;19043;51.012;5.648;2023-04-24T04:50:20;15.95;;;11.82;;
32633;SDS011;19043;51.012;5.648;2023-04-24T04:52:45;18.60;;;11.95;;
32633;SDS011;19043;51.012;5.648;2023-04-24T04:55:11;14.52;;;11.93;;
32633;SDS011;19043;51.012;5.648;2023-04-24T04:57:38;15.02;;;11.35;;
32633;SDS011;19043;51.012;5.648;2023-04-24T05:00:03;15.45;;;12.30;;
32633;SDS011;19043;51.012;5.648;2023-04-24T05:02:29;17.38;;;12.40;;
32633;SDS011;19043;51.012;5.648;2023-04-24T05:04:54;16.65;;;12.05;;
32633;SDS011;19043;51.012;5.648;2023-04-24T05:07:20;16.92;;;11.05;;
32633;SDS011;19043;51.012;5.648;2023-04-24T05:09:45;16.33;;;11.38;;
32633;SDS011;19043;51.012;5.648;2023-04-24T05:12:10;18.10;;;11.73;;
32633;SDS011;19043;51.012;5.648;2023-04-24T05:14:35;18.90;;;12.23;;
32633;SDS011;19043;51.012;5.648;2023-04-24T05:17:01;14.27;;;10.73;;
32633;SDS011;19043;51.012;5.648;2023-04-24T05:19:26;16.42;;;11.02;;
32633;SDS011;19043;51.012;5.648;2023-04-24T05:21:51;15.13;;;11.35;;
32633;SDS011;19043;51.012;5.648;2023-04-24T05:24:16;16.17;;;10.63;;
32633;SDS011;19043;51.012;5.648;2023-04-24T05:26:42;15.43;;;11.30;;
32633;SDS011;19043;51.012;5.648;2023-04-24T05:29:07;15.00;;;11.50;;
32633;SDS011;19043;51.012;5.648;2023-04-24T05:31:32;16.67;;;10.63;;
32633;SDS011;19043;51.012;5.648;2023-04-24T05:33:58;16.55;;;9.65;;
32633;SDS011;19043;51.012;5.648;2023-04-24T05:36:23;14.32;;;9.73;;
32633;SDS011;19043;51.012;5.648;2023-04-24T05:38:48;14.55;;;9.48;;
32633;SDS011;19043;51.012;5.648;2023-04-24T05:41:13;11.32;;;8.82;;
32633;SDS011;19043;51.012;5.648;2023-04-24T05:43:38;12.05;;;8.80;;
32633;SDS011;19043;51.012;5.648;2023-04-24T05:46:04;13.15;;;9.55;;
32633;SDS011;19043;51.012;5.648;2023-04-24T05:48:29;10.23;;;8.80;;
32633;SDS011;19043;51.012;5.648;2023-04-24T05:50:55;9.93;;;7.93;;
32633;SDS011;19043;51.012;5.648;2023-04-24T05:53:20;14.90;;;9.32;;
32633;SDS011;19043;51.012;5.648;2023-04-24T05:55:45;10.10;;;8.02;;
32633;SDS011;19043;51.012;5.648;2023-04-24T05:58:11;11.57;;;7.45;;
32633;SDS011;19043;51.012;5.648;2023-04-24T06:00:36;8.23;;;6.35;;
32633;SDS011;19043;51.012;5.648;2023-04-24T06:03:02;17.40;;;6.70;;
32633;SDS011;19043;51.012;5.648;2023-04-24T06:05:28;7.45;;;5.75;;
32633;SDS011;19043;51.012;5.648;2023-04-24T06:07:54;6.82;;;4.95;;
32633;SDS011;19043;51.012;5.648;2023-04-24T06:10:20;11.15;;;5.90;;
32633;SDS011;19043;51.012;5.648;2023-04-24T06:12:45;8.18;;;6.45;;
32633;SDS011;19043;51.012;5.648;2023-04-24T06:15:11;12.25;;;6.60;;
32633;SDS011;19043;51.012;5.648;2023-04-24T06:17:36;8.82;;;6.15;;
32633;SDS011;19043;51.012;5.648;2023-04-24T06:20:02;10.43;;;7.38;;
32633;SDS011;19043;51.012;5.648;2023-04-24T06:22:30;8.45;;;6.25;;
32633;SDS011;19043;51.012;5.648;2023-04-24T06:24:55;13.18;;;7.00;;
32633;SDS011;19043;51.012;5.648;2023-04-24T06:27:21;9.60;;;6.78;;
32633;SDS011;19043;51.012;5.648;2023-04-24T06:29:46;10.88;;;7.40;;
32633;SDS011;19043;51.012;5.648;2023-04-24T06:32:17;16.10;;;7.78;;
32633;SDS011;19043;51.012;5.648;2023-04-24T06:34:42;12.40;;;7.75;;
32633;SDS011;19043;51.012;5.648;2023-04-24T06:37:08;14.50;;;8.05;;
32633;SDS011;19043;51.012;5.648;2023-04-24T06:39:33;11.82;;;7.88;;
32633;SDS011;19043;51.012;5.648;2023-04-24T06:41:58;12.75;;;8.63;;
32633;SDS011;19043;51.012;5.648;2023-04-24T06:44:23;10.98;;;8.15;;
32633;SDS011;19043;51.012;5.648;2023-04-24T06:46:49;18.10;;;9.48;;
32633;SDS011;19043;51.012;5.648;2023-04-24T06:49:14;18.02;;;9.43;;
32633;SDS011;19043;51.012;5.648;2023-04-24T06:51:40;15.35;;;9.95;;
32633;SDS011;19043;51.012;5.648;2023-04-24T06:54:06;22.65;;;12.05;;
32633;SDS011;19043;51.012;5.648;2023-04-24T06:56:31;14.75;;;10.07;;
32633;SDS011;19043;51.012;5.648;2023-04-24T06:58:57;12.82;;;8.32;;
32633;SDS011;19043;51.012;5.648;2023-04-24T07:01:22;11.90;;;9.13;;
32633;SDS011;19043;51.012;5.648;2023-04-24T07:03:47;13.32;;;8.32;;
32633;SDS011;19043;51.012;5.648;2023-04-24T07:06:12;15.40;;;8.80;;
32633;SDS011;19043;51.012;5.648;2023-04-24T07:08:38;9.82;;;7.13;;
32633;SDS011;19043;51.012;5.648;2023-04-24T07:11:03;13.00;;;7.82;;
32633;SDS011;19043;51.012;5.648;2023-04-24T07:13:29;11.18;;;7.60;;
32633;SDS011;19043;51.012;5.648;2023-04-24T07:15:54;10.02;;;7.03;;
32633;SDS011;19043;51.012;5.648;2023-04-24T07:18:21;10.18;;;7.55;;
32633;SDS011;19043;51.012;5.648;2023-04-24T07:20:46;11.32;;;8.18;;
32633;SDS011;19043;51.012;5.648;2023-04-24T07:23:11;11.95;;;7.85;;
32633;SDS011;19043;51.012;5.648;2023-04-24T07:25:37;15.30;;;8.50;;
32633;SDS011;19043;51.012;5.648;2023-04-24T07:28:03;13.10;;;8.85;;
32633;SDS011;19043;51.012;5.648;2023-04-24T07:30:29;11.73;;;7.80;;
32633;SDS011;19043;51.012;5.648;2023-04-24T07:32:55;17.52;;;8.95;;
32633;SDS011;19043;51.012;5.648;2023-04-24T07:35:20;15.00;;;7.78;;
32633;SDS011;19043;51.012;5.648;2023-04-24T07:37:46;12.75;;;8.23;;
32633;SDS011;19043;51.012;5.648;2023-04-24T07:40:12;12.82;;;8.18;;
32633;SDS011;19043;51.012;5.648;2023-04-24T07:42:37;16.83;;;8.68;;
32633;SDS011;19043;51.012;5.648;2023-04-24T07:45:03;14.48;;;9.63;;
32633;SDS011;19043;51.012;5.648;2023-04-24T07:47:28;13.02;;;9.15;;
32633;SDS011;19043;51.012;5.648;2023-04-24T07:49:54;14.07;;;9.30;;
32633;SDS011;19043;51.012;5.648;2023-04-24T07:52:19;13.10;;;9.32;;
32633;SDS011;19043;51.012;5.648;2023-04-24T07:54:45;19.15;;;9.32;;
32633;SDS011;19043;51.012;5.648;2023-04-24T07:57:10;12.13;;;8.85;;
32633;SDS011;19043;51.012;5.648;2023-04-24T07:59:35;13.85;;;9.32;;
32633;SDS011;19043;51.012;5.648;2023-04-24T08:02:01;11.85;;;8.68;;
32633;SDS011;19043;51.012;5.648;2023-04-24T08:04:26;14.10;;;9.35;;
32633;SDS011;19043;51.012;5.648;2023-04-24T08:06:52;15.45;;;9.73;;
32633;SDS011;19043;51.012;5.648;2023-04-24T08:09:17;15.90;;;9.38;;
32633;SDS011;19043;51.012;5.648;2023-04-24T08:11:43;13.57;;;9.02;;
32633;SDS011;19043;51.012;5.648;2023-04-24T08:14:08;18.77;;;8.93;;
32633;SDS011;19043;51.012;5.648;2023-04-24T08:16:34;15.65;;;8.30;;
32633;SDS011;19043;51.012;5.648;2023-04-24T08:19:00;12.00;;;8.27;;
32633;SDS011;19043;51.012;5.648;2023-04-24T08:21:25;15.85;;;7.95;;
32633;SDS011;19043;51.012;5.648;2023-04-24T08:23:52;13.65;;;7.80;;
32633;SDS011;19043;51.012;5.648;2023-04-24T08:26:17;12.18;;;8.35;;
32633;SDS011;19043;51.012;5.648;2023-04-24T08:28:42;15.13;;;8.25;;
32633;SDS011;19043;51.012;5.648;2023-04-24T08:31:08;14.05;;;8.45;;
32633;SDS011;19043;51.012;5.648;2023-04-24T08:33:33;11.55;;;7.70;;
32633;SDS011;19043;51.012;5.648;2023-04-24T08:36:02;18.13;;;8.60;;
32633;SDS011;19043;51.012;5.648;2023-04-24T08:38:27;12.68;;;8.13;;
32633;SDS011;19043;51.012;5.648;2023-04-24T08:40:53;11.98;;;8.45;;
32633;SDS011;19043;51.012;5.648;2023-04-24T08:43:18;14.05;;;7.50;;
32633;SDS011;19043;51.012;5.648;2023-04-24T08:45:45;18.33;;;9.13;;
32633;SDS011;19043;51.012;5.648;2023-04-24T08:48:11;14.27;;;9.10;;
32633;SDS011;19043;51.012;5.648;2023-04-24T08:50:36;13.30;;;9.15;;
32633;SDS011;19043;51.012;5.648;2023-04-24T08:53:02;13.23;;;8.93;;
32633;SDS011;19043;51.012;5.648;2023-04-24T08:55:27;11.68;;;8.52;;
32633;SDS011;19043;51.012;5.648;2023-04-24T08:57:55;16.30;;;9.30;;
32633;SDS011;19043;51.012;5.648;2023-04-24T09:00:21;20.38;;;8.88;;
32633;SDS011;19043;51.012;5.648;2023-04-24T09:02:47;10.85;;;8.60;;
32633;SDS011;19043;51.012;5.648;2023-04-24T09:05:13;10.80;;;7.20;;
32633;SDS011;19043;51.012;5.648;2023-04-24T09:07:39;12.75;;;7.65;;
32633;SDS011;19043;51.012;5.648;2023-04-24T09:10:07;9.77;;;7.47;;
32633;SDS011;19043;51.012;5.648;2023-04-24T09:12:32;12.07;;;7.65;;
32633;SDS011;19043;51.012;5.648;2023-04-24T09:14:58;14.35;;;7.93;;
32633;SDS011;19043;51.012;5.648;2023-04-24T09:17:25;11.88;;;7.95;;
32633;SDS011;19043;51.012;5.648;2023-04-24T09:19:52;20.63;;;8.30;;
32633;SDS011;19043;51.012;5.648;2023-04-24T09:22:17;19.98;;;7.15;;
32633;SDS011;19043;51.012;5.648;2023-04-24T09:24:42;11.43;;;6.28;;
32633;SDS011;19043;51.012;5.648;2023-04-24T09:27:07;11.57;;;6.65;;
32633;SDS011;19043;51.012;5.648;2023-04-24T09:29:35;14.73;;;5.78;;
32633;SDS011;19043;51.012;5.648;2023-04-24T09:32:11;14.65;;;6.97;;
32633;SDS011;19043;51.012;5.648;2023-04-24T09:34:42;16.98;;;7.85;;
32633;SDS011;19043;51.012;5.648;2023-04-24T09:37:08;17.90;;;8.35;;
32633;SDS011;19043;51.012;5.648;2023-04-24T09:39:34;13.95;;;8.02;;
32633;SDS011;19043;51.012;5.648;2023-04-24T09:42:00;14.55;;;7.78;;
32633;SDS011;19043;51.012;5.648;2023-04-24T09:44:26;16.83;;;7.63;;
32633;SDS011;19043;51.012;5.648;2023-04-24T09:46:53;22.38;;;8.82;;
32633;SDS011;19043;51.012;5.648;2023-04-24T09:49:28;23.65;;;9.45;;
32633;SDS011;19043;51.012;5.648;2023-04-24T09:52:06;13.82;;;8.48;;
32633;SDS011;19043;51.012;5.648;2023-04-24T09:54:31;15.02;;;7.72;;
32633;SDS011;19043;51.012;5.648;2023-04-24T09:56:58;19.60;;;7.30;;
32633;SDS011;19043;51.012;5.648;2023-04-24T09:59:26;18.80;;;7.10;;
32633;SDS011;19043;51.012;5.648;2023-04-24T10:01:51;12.63;;;7.40;;
32633;SDS011;19043;51.012;5.648;2023-04-24T10:04:23;18.88;;;6.93;;
32633;SDS011;19043;51.012;5.648;2023-04-24T10:06:49;14.27;;;6.82;;
32633;SDS011;19043;51.012;5.648;2023-04-24T10:09:15;11.10;;;6.68;;
32633;SDS011;19043;51.012;5.648;2023-04-24T10:11:42;13.75;;;7.22;;
32633;SDS011;19043;51.012;5.648;2023-04-24T10:14:09;15.38;;;7.30;;
32633;SDS011;19043;51.012;5.648;2023-04-24T10:16:35;13.32;;;6.25;;
32633;SDS011;19043;51.012;5.648;2023-04-24T10:19:01;11.57;;;7.72;;
32633;SDS011;19043;51.012;5.648;2023-04-24T10:21:28;20.05;;;8.35;;
32633;SDS011;19043;51.012;5.648;2023-04-24T10:23:53;14.50;;;7.43;;
32633;SDS011;19043;51.012;5.648;2023-04-24T10:26:18;15.07;;;6.47;;
32633;SDS011;19043;51.012;5.648;2023-04-24T10:28:47;11.00;;;6.90;;
32633;SDS011;19043;51.012;5.648;2023-04-24T10:31:14;9.32;;;5.57;;
32633;SDS011;19043;51.012;5.648;2023-04-24T10:33:43;24.45;;;6.57;;
32633;SDS011;19043;51.012;5.648;2023-04-24T10:36:11;12.75;;;6.30;;
32633;SDS011;19043;51.012;5.648;2023-04-24T10:38:38;11.75;;;6.43;;
32633;SDS011;19043;51.012;5.648;2023-04-24T10:41:09;12.90;;;5.68;;
32633;SDS011;19043;51.012;5.648;2023-04-24T10:43:35;13.63;;;6.80;;
32633;SDS011;19043;51.012;5.648;2023-04-24T10:46:04;13.77;;;5.07;;
32633;SDS011;19043;51.012;5.648;2023-04-24T10:48:31;15.40;;;6.47;;
32633;SDS011;19043;51.012;5.648;2023-04-24T10:50:57;15.77;;;6.38;;
32633;SDS011;19043;51.012;5.648;2023-04-24T10:53:25;12.90;;;5.90;;
32633;SDS011;19043;51.012;5.648;2023-04-24T10:55:56;17.02;;;7.03;;
32633;SDS011;19043;51.012;5.648;2023-04-24T10:58:22;10.80;;;6.55;;
32633;SDS011;19043;51.012;5.648;2023-04-24T11:00:58;8.73;;;6.10;;
32633;SDS011;19043;51.012;5.648;2023-04-24T11:05:59;10.65;;;5.00;;
32633;SDS011;19043;51.012;5.648;2023-04-24T11:08:25;10.27;;;5.38;;
32633;SDS011;19043;51.012;5.648;2023-04-24T11:11:01;12.18;;;5.00;;
32633;SDS011;19043;51.012;5.648;2023-04-24T11:21:47;20.42;;;4.95;;
32633;SDS011;19043;51.012;5.648;2023-04-24T11:26:57;15.95;;;4.43;;
32633;SDS011;19043;51.012;5.648;2023-04-24T11:29:23;10.38;;;3.67;;
32633;SDS011;19043;51.012;5.648;2023-04-24T11:32:13;12.55;;;5.15;;
32633;SDS011;19043;51.012;5.648;2023-04-24T11:34:39;7.18;;;3.65;;
32633;SDS011;19043;51.012;5.648;2023-04-24T11:37:04;16.25;;;4.35;;
32633;SDS011;19043;51.012;5.648;2023-04-24T11:39:35;8.73;;;3.78;;
32633;SDS011;19043;51.012;5.648;2023-04-24T11:42:04;13.95;;;5.22;;
32633;SDS011;19043;51.012;5.648;2023-04-24T11:44:35;7.00;;;4.13;;
32633;SDS011;19043;51.012;5.648;2023-04-24T11:47:04;7.38;;;4.28;;
32633;SDS011;19043;51.012;5.648;2023-04-24T11:49:29;11.60;;;4.53;;
32633;SDS011;19043;51.012;5.648;2023-04-24T11:51:55;14.02;;;5.22;;
32633;SDS011;19043;51.012;5.648;2023-04-24T11:54:20;9.40;;;4.93;;
32633;SDS011;19043;51.012;5.648;2023-04-24T11:56:46;8.63;;;3.95;;
32633;SDS011;19043;51.012;5.648;2023-04-24T11:59:11;10.20;;;3.65;;
32633;SDS011;19043;51.012;5.648;2023-04-24T12:01:43;14.85;;;4.07;;
32633;SDS011;19043;51.012;5.648;2023-04-24T12:04:09;11.65;;;4.45;;
32633;SDS011;19043;51.012;5.648;2023-04-24T12:06:35;10.18;;;4.05;;
32633;SDS011;19043;51.012;5.648;2023-04-24T12:09:00;8.95;;;3.58;;
32633;SDS011;19043;51.012;5.648;2023-04-24T12:11:25;7.82;;;3.67;;
32633;SDS011;19043;51.012;5.648;2023-04-24T12:13:51;11.75;;;3.85;;
32633;SDS011;19043;51.012;5.648;2023-04-24T12:16:16;7.05;;;3.30;;
32633;SDS011;19043;51.012;5.648;2023-04-24T12:18:42;11.93;;;4.25;;
32633;SDS011;19043;51.012;5.648;2023-04-24T12:21:15;7.32;;;3.30;;
32633;SDS011;19043;51.012;5.648;2023-04-24T12:23:42;7.03;;;3.40;;
32633;SDS011;19043;51.012;5.648;2023-04-24T12:26:08;7.93;;;3.20;;
32633;SDS011;19043;51.012;5.648;2023-04-24T12:28:36;9.50;;;2.83;;
32633;SDS011;19043;51.012;5.648;2023-04-24T12:31:02;8.50;;;3.92;;
32633;SDS011;19043;51.012;5.648;2023-04-24T12:33:27;5.60;;;2.72;;
32633;SDS011;19043;51.012;5.648;2023-04-24T12:35:52;6.53;;;3.00;;
32633;SDS011;19043;51.012;5.648;2023-04-24T12:38:22;7.70;;;3.55;;
32633;SDS011;19043;51.012;5.648;2023-04-24T12:41:00;7.90;;;3.63;;
32633;SDS011;19043;51.012;5.648;2023-04-24T12:43:26;9.35;;;3.30;;
32633;SDS011;19043;51.012;5.648;2023-04-24T12:45:51;8.00;;;3.70;;
32633;SDS011;19043;51.012;5.648;2023-04-24T12:48:16;8.40;;;3.70;;
32633;SDS011;19043;51.012;5.648;2023-04-24T12:50:42;7.68;;;3.60;;
32633;SDS011;19043;51.012;5.648;2023-04-24T12:53:08;12.93;;;3.67;;
32633;SDS011;19043;51.012;5.648;2023-04-24T12:55:34;15.13;;;4.13;;
32633;SDS011;19043;51.012;5.648;2023-04-24T12:57:59;6.35;;;3.38;;
32633;SDS011;19043;51.012;5.648;2023-04-24T13:00:24;8.93;;;3.75;;
32633;SDS011;19043;51.012;5.648;2023-04-24T13:02:49;8.70;;;3.53;;
32633;SDS011;19043;51.012;5.648;2023-04-24T13:05:15;8.85;;;3.45;;
32633;SDS011;19043;51.012;5.648;2023-04-24T13:07:40;12.63;;;4.03;;
32633;SDS011;19043;51.012;5.648;2023-04-24T13:10:06;5.97;;;3.80;;
32633;SDS011;19043;51.012;5.648;2023-04-24T13:12:32;9.88;;;3.90;;
32633;SDS011;19043;51.012;5.648;2023-04-24T13:14:57;5.75;;;3.38;;
32633;SDS011;19043;51.012;5.648;2023-04-24T13:17:23;7.70;;;4.45;;
32633;SDS011;19043;51.012;5.648;2023-04-24T13:19:49;9.13;;;4.68;;
32633;SDS011;19043;51.012;5.648;2023-04-24T13:22:15;10.55;;;3.97;;
32633;SDS011;19043;51.012;5.648;2023-04-24T13:24:40;10.15;;;4.20;;
32633;SDS011;19043;51.012;5.648;2023-04-24T13:27:06;11.52;;;3.55;;
32633;SDS011;19043;51.012;5.648;2023-04-24T13:29:31;7.10;;;3.40;;
32633;SDS011;19043;51.012;5.648;2023-04-24T13:31:57;5.50;;;3.17;;
32633;SDS011;19043;51.012;5.648;2023-04-24T13:34:22;6.20;;;3.22;;
32633;SDS011;19043;51.012;5.648;2023-04-24T13:36:49;7.75;;;3.25;;
32633;SDS011;19043;51.012;5.648;2023-04-24T13:39:14;7.85;;;3.00;;
32633;SDS011;19043;51.012;5.648;2023-04-24T13:41:41;9.05;;;3.90;;
32633;SDS011;19043;51.012;5.648;2023-04-24T13:44:08;5.82;;;3.75;;
32633;SDS011;19043;51.012;5.648;2023-04-24T13:46:33;6.80;;;3.10;;
32633;SDS011;19043;51.012;5.648;2023-04-24T13:48:58;8.00;;;2.97;;
32633;SDS011;19043;51.012;5.648;2023-04-24T13:51:27;4.50;;;3.25;;
32633;SDS011;19043;51.012;5.648;2023-04-24T13:53:52;7.25;;;3.30;;
32633;SDS011;19043;51.012;5.648;2023-04-24T13:56:18;4.60;;;2.80;;
32633;SDS011;19043;51.012;5.648;2023-04-24T13:58:43;7.35;;;2.72;;
32633;SDS011;19043;51.012;5.648;2023-04-24T14:01:08;4.40;;;2.25;;
32633;SDS011;19043;51.012;5.648;2023-04-24T14:03:33;5.07;;;2.70;;
32633;SDS011;19043;51.012;5.648;2023-04-24T14:05:59;6.30;;;2.50;;
32633;SDS011;19043;51.012;5.648;2023-04-24T14:08:24;10.02;;;2.20;;
32633;SDS011;19043;51.012;5.648;2023-04-24T14:10:50;17.48;;;2.53;;
32633;SDS011;19043;51.012;5.648;2023-04-24T14:13:15;4.57;;;1.83;;
32633;SDS011;19043;51.012;5.648;2023-04-24T14:15:41;8.63;;;2.13;;
32633;SDS011;19043;51.012;5.648;2023-04-24T14:18:06;6.07;;;2.47;;
32633;SDS011;19043;51.012;5.648;2023-04-24T14:20:31;7.30;;;2.95;;
32633;SDS011;19043;51.012;5.648;2023-04-24T14:22:57;4.60;;;2.33;;
32633;SDS011;19043;51.012;5.648;2023-04-24T14:25:25;6.13;;;2.97;;
32633;SDS011;19043;51.012;5.648;2023-04-24T14:27:50;4.97;;;2.30;;
32633;SDS011;19043;51.012;5.648;2023-04-24T14:30:16;5.13;;;2.63;;
32633;SDS011;19043;51.012;5.648;2023-04-24T14:32:41;4.38;;;2.40;;
32633;SDS011;19043;51.012;5.648;2023-04-24T14:35:07;4.90;;;2.55;;
32633;SDS011;19043;51.012;5.648;2023-04-24T14:37:32;4.53;;;2.45;;
32633;SDS011;19043;51.012;5.648;2023-04-24T14:39:57;9.70;;;3.13;;